Time;durP1;ratioP1;P1;durP2;ratioP2;P2;SDS_P1;SDS_P2;PMS_P1;PMS_P2;Temp;Humidity;BMP_temperature;BMP_pressure;BME280_temperature;BME280_humidity;BME280_pressure;Samples;Min_cycle;Max_cycle;Signal;HPM_P1;HPM_P2
2023/10/13 00:00:42;;;;;;;18.95;13.70;;;;;;;14.51;100.00;100560.19;5042904;28;20055;-83
2023/10/13 00:03:14;;;;;;;19.58;13.45;;;;;;;14.53;100.00;100566.28;5036149;28;20045;-77
2023/10/13 00:05:47;;;;;;;15.97;10.87;;;;;;;14.58;100.00;100567.94;5039845;28;20041;-78
2023/10/13 00:08:17;;;;;;;22.03;12.87;;;;;;;14.58;100.00;100570.56;5049742;28;20779;-78
2023/10/13 00:10:47;;;;;;;20.25;13.07;;;;;;;14.61;100.00;100563.44;5041054;28;20124;-76
2023/10/13 00:13:15;;;;;;;30.90;13.10;;;;;;;14.64;100.00;100557.25;5033917;28;20032;-79
2023/10/13 00:15:56;;;;;;;19.05;12.70;;;;;;;14.68;100.00;100557.13;5042415;28;20526;-78
2023/10/13 00:18:33;;;;;;;25.77;15.45;;;;;;;14.68;100.00;100559.78;5046726;28;20033;-79
2023/10/13 00:21:00;;;;;;;19.50;11.75;;;;;;;14.71;100.00;100548.28;5037344;28;20732;-78
2023/10/13 00:23:27;;;;;;;19.25;13.05;;;;;;;14.72;100.00;100547.38;5040646;28;20052;-76
2023/10/13 00:26:03;;;;;;;21.30;12.25;;;;;;;14.76;100.00;100553.41;5035044;28;20052;-81
2023/10/13 00:28:42;;;;;;;23.67;12.73;;;;;;;14.78;100.00;100548.97;5044769;28;20136;-76
2023/10/13 00:31:11;;;;;;;16.08;11.45;;;;;;;14.80;100.00;100548.03;5044058;28;20040;-79
2023/10/13 00:33:44;;;;;;;19.13;12.45;;;;;;;14.85;100.00;100547.91;5045147;28;20037;-79
2023/10/13 00:36:17;;;;;;;16.73;12.73;;;;;;;14.81;100.00;100541.84;5042451;28;20041;-79
2023/10/13 00:38:47;;;;;;;18.58;11.85;;;;;;;14.84;100.00;100540.91;5045217;28;20056;-77
2023/10/13 00:41:18;;;;;;;;;;;;;;;14.88;100.00;100545.16;5044160;28;20148;-78
2023/10/13 00:46:33;;;;;;;18.75;12.80;;;;;;;14.93;100.00;100530.09;5045462;28;20037;-77
2023/10/13 00:48:59;;;;;;;19.05;11.98;;;;;;;14.98;100.00;100524.66;5053887;28;20068;-78
2023/10/13 00:51:34;;;;;;;19.67;13.25;;;;;;;15.02;100.00;100518.44;5037254;28;20045;-78
2023/10/13 00:54:07;;;;;;;16.67;12.60;;;;;;;15.07;100.00;100518.25;5048526;28;20056;-81
2023/10/13 00:56:40;;;;;;;23.67;14.43;;;;;;;15.09;100.00;100517.31;5039493;28;20041;-76
2023/10/13 00:59:09;;;;;;;22.40;14.98;;;;;;;15.15;100.00;100525.03;5041293;28;20299;-76
2023/10/13 01:01:36;;;;;;;24.88;15.45;;;;;;;15.17;100.00;100515.31;5039811;28;20125;-81
2023/10/13 01:04:04;;;;;;;26.38;16.02;;;;;;;15.24;100.00;100512.47;5022703;28;20041;-78
2023/10/13 01:06:31;;;;;;;26.23;15.30;;;;;;;15.27;100.00;100510.63;5070607;28;20042;-79
2023/10/13 01:09:13;;;;;;;22.42;13.73;;;;;;;15.29;100.00;100516.72;5033526;28;20040;-77
2023/10/13 01:11:52;;;;;;;22.60;15.70;;;;;;;15.32;100.00;100513.97;5043597;28;20167;-78
2023/10/13 01:14:20;;;;;;;26.45;15.32;;;;;;;15.33;100.00;100514.84;5046146;28;20359;-77
2023/10/13 01:17:01;;;;;;;26.88;15.50;;;;;;;15.34;100.00;100512.19;5040952;28;20452;-82
2023/10/13 01:19:27;;;;;;;23.33;15.82;;;;;;;15.35;100.00;100513.03;5025676;28;20055;-80
2023/10/13 01:21:57;;;;;;;22.33;14.32;;;;;;;15.37;100.00;100509.44;5041847;28;20428;-78
2023/10/13 01:24:24;;;;;;;24.73;14.10;;;;;;;15.39;100.00;100506.75;5056548;28;20049;-75
2023/10/13 01:26:54;;;;;;;20.80;14.63;;;;;;;15.41;100.00;100507.56;5073056;28;20188;-77
2023/10/13 01:29:19;;;;;;;26.17;15.82;;;;;;;15.44;100.00;100496.91;5053780;28;20053;-80
2023/10/13 01:31:47;;;;;;;21.85;14.93;;;;;;;15.49;100.00;100497.63;5069982;28;20072;-78
2023/10/13 01:34:21;;;;;;;27.33;16.35;;;;;;;15.50;100.00;100495.84;5047929;28;20060;-80
2023/10/13 01:36:50;;;;;;;25.80;17.35;;;;;;;15.48;100.00;100495.88;5042079;28;20044;-78
2023/10/13 01:39:20;;;;;;;30.55;18.67;;;;;;;15.45;100.00;100495.13;5043483;28;20049;-78
2023/10/13 01:41:53;;;;;;;42.25;23.67;;;;;;;15.41;100.00;100497.00;5040521;28;20045;-81
2023/10/13 01:44:19;;;;;;;39.77;22.87;;;;;;;15.41;100.00;100494.38;5051087;28;20052;-76
2023/10/13 01:46:47;;;;;;;45.20;25.38;;;;;;;15.37;100.00;100490.13;5054954;28;20041;-80
2023/10/13 01:49:15;;;;;;;41.10;23.58;;;;;;;15.35;100.00;100484.00;5037866;28;20049;-76
2023/10/13 01:51:47;;;;;;;57.42;34.72;;;;;;;15.33;100.00;100473.53;5038558;28;20378;-79
2023/10/13 01:54:16;;;;;;;64.05;37.30;;;;;;;15.32;100.00;100470.94;5033004;28;20037;-75
2023/10/13 01:56:44;;;;;;;60.30;34.60;;;;;;;15.32;100.00;100471.78;5037052;28;20563;-82
2023/10/13 01:59:17;;;;;;;58.38;34.35;;;;;;;15.35;100.00;100463.75;5042125;28;20045;-80
2023/10/13 02:01:46;;;;;;;55.20;33.23;;;;;;;15.41;100.00;100461.84;5036227;28;20045;-79
2023/10/13 02:04:12;;;;;;;48.05;29.65;;;;;;;15.39;100.00;100454.84;5025079;28;20566;-81
2023/10/13 02:06:48;;;;;;;37.13;26.02;;;;;;;15.44;100.00;100467.91;5039411;28;20098;-78
2023/10/13 02:09:25;;;;;;;35.45;23.23;;;;;;;15.49;100.00;100468.59;5048642;28;20041;-78
2023/10/13 02:11:54;;;;;;;35.03;23.15;;;;;;;15.49;100.00;100459.84;5031072;28;20034;-79
2023/10/13 02:14:22;;;;;;;33.03;22.30;;;;;;;15.47;100.00;100465.16;5050861;28;20121;-76
2023/10/13 02:16:56;;;;;;;30.40;20.92;;;;;;;15.43;100.00;100463.53;5030676;28;20052;-79
2023/10/13 02:19:27;;;;;;;35.15;20.63;;;;;;;15.41;100.00;100467.13;5032958;28;20513;-78
2023/10/13 02:21:58;;;;;;;26.30;20.48;;;;;;;15.35;100.00;100461.13;5056677;28;20137;-79
2023/10/13 02:24:29;;;;;;;28.20;19.55;;;;;;;15.26;100.00;100458.78;5054390;28;20048;-78
2023/10/13 02:27:02;;;;;;;25.02;18.52;;;;;;;15.22;100.00;100451.88;5041931;28;20048;-81
2023/10/13 02:29:28;;;;;;;28.52;19.77;;;;;;;15.22;100.00;100455.38;5032941;28;20049;-80
2023/10/13 02:31:55;;;;;;;29.40;19.83;;;;;;;15.21;100.00;100458.06;5032916;28;20045;-83
2023/10/13 02:34:22;;;;;;;31.20;18.25;;;;;;;15.20;100.00;100456.34;5036148;28;20042;-78
2023/10/13 02:36:50;;;;;;;21.73;17.83;;;;;;;15.22;100.00;100454.53;5047437;28;20037;-79
2023/10/13 02:39:16;;;;;;;23.23;17.13;;;;;;;15.26;100.00;100450.03;5031848;28;20148;-79
2023/10/13 02:41:47;;;;;;;21.42;16.25;;;;;;;15.27;100.00;100449.13;5032591;28;20057;-81
2023/10/13 02:44:26;;;;;;;23.33;16.88;;;;;;;15.29;100.00;100436.72;5031647;28;20051;-79
2023/10/13 02:46:55;;;;;;;26.02;18.95;;;;;;;15.29;100.00;100444.66;5034210;28;20053;-76
2023/10/13 02:49:25;;;;;;;22.50;16.30;;;;;;;15.33;100.00;100438.34;5041954;28;20056;-79
2023/10/13 02:51:52;;;;;;;28.77;18.83;;;;;;;15.36;100.00;100443.53;5034567;28;20060;-76
2023/10/13 02:54:19;;;;;;;28.73;19.27;;;;;;;15.35;100.00;100432.13;5064883;28;20153;-82
2023/10/13 02:57:03;;;;;;;26.90;17.80;;;;;;;15.38;100.00;100426.75;5035985;28;20044;-82
2023/10/13 02:59:34;;;;;;;24.15;17.95;;;;;;;15.42;100.00;100431.91;5042482;28;20588;-80
2023/10/13 03:02:17;;;;;;;18.17;14.35;;;;;;;15.41;100.00;100424.91;5038162;28;20048;-81
2023/10/13 03:04:47;;;;;;;28.15;18.83;;;;;;;15.40;100.00;100416.16;5060505;28;20045;-80
2023/10/13 03:07:15;;;;;;;24.20;18.23;;;;;;;15.43;100.00;100415.19;5039356;28;20575;-77
2023/10/13 03:09:50;;;;;;;20.92;16.58;;;;;;;15.44;100.00;100417.78;5045866;28;20144;-77
2023/10/13 03:12:21;;;;;;;26.08;18.23;;;;;;;15.46;100.00;100415.97;5033279;28;20513;-81
2023/10/13 03:14:47;;;;;;;28.38;18.17;;;;;;;15.49;100.00;100409.72;5031698;28;20055;-78
2023/10/13 03:17:17;;;;;;;21.35;15.90;;;;;;;15.51;100.00;100405.25;5040337;28;20041;-76
2023/10/13 03:19:49;;;;;;;21.50;15.57;;;;;;;15.51;100.00;100403.47;5039675;28;20048;-79
2023/10/13 03:22:16;;;;;;;23.13;16.27;;;;;;;15.51;100.00;100398.22;5053035;28;20111;-76
2023/10/13 03:24:46;;;;;;;21.75;15.93;;;;;;;15.58;100.00;100387.41;5039153;28;20049;-76
2023/10/13 03:27:16;;;;;;;21.77;15.70;;;;;;;15.57;100.00;100389.22;5039079;28;20080;-79
2023/10/13 03:29:44;;;;;;;20.77;14.93;;;;;;;15.59;100.00;100390.03;5038606;28;20174;-79
2023/10/13 03:32:15;;;;;;;24.25;15.75;;;;;;;15.62;100.00;100386.41;5040309;28;20034;-78
2023/10/13 03:35:11;;;;;;;18.88;14.38;;;;;;;15.62;100.00;100381.13;5042789;28;20041;-80
2023/10/13 03:37:38;;;;;;;23.60;15.05;;;;;;;15.65;100.00;100373.97;5040354;28;20072;-80
2023/10/13 03:43:00;;;;;;;23.05;13.88;;;;;;;15.67;100.00;100380.06;5053831;28;20053;-77
2023/10/13 03:45:36;;;;;;;22.58;13.68;;;;;;;15.85;100.00;100375.97;5043115;28;20045;-77
2023/10/13 03:48:08;;;;;;;18.90;13.02;;;;;;;15.92;100.00;100365.16;5054083;28;20053;-79
2023/10/13 03:50:46;;;;;;;19.75;13.52;;;;;;;15.87;100.00;100367.97;5053027;28;20041;-79
2023/10/13 03:53:16;;;;;;;18.65;12.38;;;;;;;15.83;100.00;100361.09;5040715;28;20053;-80
2023/10/13 03:55:47;;;;;;;19.13;12.73;;;;;;;15.81;100.00;100369.06;5043851;28;20064;-77
2023/10/13 03:58:16;;;;;;;19.00;13.70;;;;;;;15.80;100.00;100366.44;5044144;28;20036;-79
2023/10/13 04:00:43;;;;;;;17.40;12.05;;;;;;;15.64;100.00;100366.97;5042283;28;20047;-78
2023/10/13 04:03:10;;;;;;;17.65;12.82;;;;;;;15.65;100.00;100367.84;5036286;28;20044;-80
2023/10/13 04:05:44;;;;;;;16.58;12.85;;;;;;;15.65;100.00;100358.13;5048951;28;20041;-77
2023/10/13 04:14:22;;;;;;;13.35;11.85;;;;;;;15.70;100.00;100355.34;5042133;28;20041;-81
2023/10/13 04:16:53;;;;;;;14.30;11.45;;;;;;;15.71;100.00;100351.81;5044998;28;20049;-83
2023/10/13 04:19:29;;;;;;;14.93;11.50;;;;;;;15.67;100.00;100343.13;5041273;28;20045;-77
2023/10/13 04:22:14;;;;;;;15.48;11.45;;;;;;;15.66;100.00;100343.19;5037447;28;20049;-77
2023/10/13 04:25:00;;;;;;;15.63;10.43;;;;;;;15.67;100.00;100337.84;5041222;28;20124;-80
2023/10/13 04:27:53;;;;;;;21.42;11.05;;;;;;;15.64;100.00;100334.44;5046874;28;20041;-77
2023/10/13 04:30:26;;;;;;;17.27;11.60;;;;;;;15.62;100.00;100333.63;5068885;28;20072;-77
2023/10/13 04:33:35;;;;;;;16.55;11.50;;;;;;;15.60;100.00;100319.66;5034425;28;20132;-78
2023/10/13 04:36:13;;;;;;;15.75;11.07;;;;;;;15.57;100.00;100317.13;5037090;28;20368;-76
2023/10/13 04:39:09;;;;;;;14.80;12.05;;;;;;;15.55;100.00;100314.50;5036871;28;20049;-78
2023/10/13 04:41:41;;;;;;;11.15;9.88;;;;;;;15.53;100.00;100304.03;5040615;28;20044;-79
2023/10/13 04:44:48;;;;;;;14.03;11.67;;;;;;;15.55;100.00;100309.25;5030519;28;20056;-78
2023/10/13 04:47:17;;;;;;;16.83;11.05;;;;;;;15.48;100.00;100292.78;5048844;28;20064;-79
2023/10/13 04:49:51;;;;;;;12.23;10.93;;;;;;;15.45;100.00;100297.28;5018823;28;20392;-77
2023/10/13 04:52:44;;;;;;;13.45;10.23;;;;;;;15.46;100.00;100294.63;5053583;28;20052;-77
2023/10/13 04:55:18;;;;;;;15.55;11.52;;;;;;;15.59;100.00;100294.16;5039314;28;20049;-81
2023/10/13 04:57:49;;;;;;;13.80;11.10;;;;;;;15.62;100.00;100288.78;5037149;28;20048;-78
2023/10/13 05:06:10;;;;;;;14.95;10.35;;;;;;;15.74;100.00;100285.72;5033815;28;20380;-80
2023/10/13 05:44:47;;;;;;;10.85;8.70;;;;;;;15.93;100.00;100245.47;5008334;28;20106;-80
2023/10/13 05:50:13;;;;;;;9.77;8.77;;;;;;;15.95;100.00;100238.34;5040340;28;20124;-78
2023/10/13 06:28:43;;;;;;;7.90;6.85;;;;;;;15.99;100.00;100221.47;5026904;28;20099;-78
2023/10/13 06:31:21;;;;;;;7.35;6.05;;;;;;;15.97;100.00;100211.00;5050461;28;20056;-81
2023/10/13 06:33:47;;;;;;;7.82;6.80;;;;;;;16.04;100.00;100216.88;5043404;28;20497;-79
2023/10/13 06:36:14;;;;;;;9.82;7.00;;;;;;;16.04;100.00;100209.81;5054595;28;20044;-79
2023/10/13 06:38:41;;;;;;;11.82;7.95;;;;;;;16.06;100.00;100207.13;5044427;28;20060;-81
2023/10/13 06:41:09;;;;;;;10.05;6.97;;;;;;;16.05;100.00;100213.34;5041338;28;20672;-78
2023/10/13 06:43:39;;;;;;;8.13;6.70;;;;;;;16.10;100.00;100198.16;5026814;28;20230;-79
2023/10/13 06:46:14;;;;;;;9.57;6.88;;;;;;;16.07;100.00;100203.56;5020310;28;20049;-79
2023/10/13 06:48:42;;;;;;;7.10;6.38;;;;;;;16.06;100.00;100204.50;5035898;28;20044;-80
2023/10/13 06:51:17;;;;;;;7.70;6.97;;;;;;;16.10;100.00;100210.50;5043471;28;20641;-79
2023/10/13 06:53:47;;;;;;;7.68;6.65;;;;;;;16.06;100.00;100235.31;5043773;28;20442;-79
2023/10/13 06:56:27;;;;;;;10.57;7.22;;;;;;;16.01;100.00;100219.66;5050770;28;21127;-83
2023/10/13 06:58:59;;;;;;;10.50;7.00;;;;;;;16.00;100.00;100197.66;5036532;28;20046;-83
2023/10/13 07:01:29;;;;;;;10.18;6.50;;;;;;;15.91;100.00;100199.81;5047827;28;20037;-78
2023/10/13 07:04:01;;;;;;;9.57;6.32;;;;;;;15.88;100.00;100203.41;5074134;28;20401;-79
2023/10/13 07:06:31;;;;;;;11.15;7.00;;;;;;;15.88;100.00;100196.34;5038356;28;20068;-79
2023/10/13 07:09:05;;;;;;;7.45;6.75;;;;;;;15.91;100.00;100190.09;5026210;28;20076;-77
2023/10/13 07:11:34;;;;;;;7.55;5.88;;;;;;;15.91;100.00;100189.25;5045829;28;20041;-81
2023/10/13 07:14:10;;;;;;;11.05;6.03;;;;;;;15.92;100.00;100181.25;5060209;28;20570;-78
2023/10/13 07:17:07;;;;;;;10.45;5.90;;;;;;;15.94;100.00;100183.84;5040282;28;20048;-78
2023/10/13 07:19:34;;;;;;;9.27;6.63;;;;;;;15.92;100.00;100175.09;5038147;28;20064;-79
2023/10/13 07:22:19;;;;;;;11.10;6.25;;;;;;;15.93;100.00;100172.44;5073880;28;20056;-78
2023/10/13 07:24:48;;;;;;;10.35;7.07;;;;;;;16.02;100.00;100171.19;5067879;28;20037;-78
2023/10/13 07:27:24;;;;;;;8.35;6.55;;;;;;;16.02;100.00;100165.91;5042550;28;20143;-79
2023/10/13 07:30:13;;;;;;;8.60;7.55;;;;;;;16.07;100.00;100163.09;5073531;28;20049;-80
2023/10/13 07:32:45;;;;;;;7.60;5.97;;;;;;;16.05;100.00;100165.81;5046559;28;20722;-78
2023/10/13 07:35:24;;;;;;;11.82;6.85;;;;;;;16.01;100.00;100161.56;5039048;28;20419;-78
2023/10/13 07:37:52;;;;;;;9.10;7.00;;;;;;;15.98;100.00;100152.00;5056963;28;20055;-80
2023/10/13 07:43:23;;;;;;;10.73;7.30;;;;;;;16.00;100.00;100138.72;5162250;27;21204;-77
2023/10/13 07:45:58;;;;;;;9.80;6.68;;;;;;;16.03;100.00;100126.28;5139469;27;20042;-85
2023/10/13 07:48:28;;;;;;;11.95;7.60;;;;;;;16.02;100.00;100148.31;5129787;27;20057;-84
2023/10/13 07:51:09;;;;;;;10.07;7.88;;;;;;;16.34;100.00;100127.63;5135353;27;20211;-80
2023/10/13 07:53:39;;;;;;;9.70;6.70;;;;;;;16.31;100.00;100121.63;5126945;27;20050;-77
2023/10/13 07:56:07;;;;;;;9.60;7.00;;;;;;;16.28;100.00;100122.63;5133009;27;20043;-80
2023/10/13 07:58:34;;;;;;;10.65;7.57;;;;;;;16.21;100.00;100121.16;5137836;27;20100;-79
2023/10/13 08:01:08;;;;;;;12.07;7.65;;;;;;;16.15;100.00;100126.69;5135414;27;20035;-80
2023/10/13 08:03:43;;;;;;;14.38;8.52;;;;;;;16.13;100.00;100120.63;5131230;27;20031;-84
2023/10/13 08:06:26;;;;;;;13.70;7.95;;;;;;;16.19;100.00;100126.50;5128291;27;20050;-80
2023/10/13 08:08:56;;;;;;;12.50;8.85;;;;;;;16.31;100.00;100114.56;5133384;27;20154;-80
2023/10/13 08:11:27;;;;;;;8.43;7.55;;;;;;;16.36;100.00;100120.53;5124593;27;20067;-80
2023/10/13 08:13:59;;;;;;;10.63;7.05;;;;;;;16.41;100.00;100136.16;5109371;28;20042;-78
2023/10/13 08:16:45;;;;;;;9.70;6.50;;;;;;;16.51;100.00;100126.94;5109287;28;20048;-78
2023/10/13 08:19:17;;;;;;;9.95;6.22;;;;;;;16.61;100.00;100092.19;5096002;28;20047;-83
2023/10/13 08:21:51;;;;;;;6.15;5.13;;;;;;;16.67;100.00;100090.16;5090055;28;20043;-82
2023/10/13 08:24:25;;;;;;;7.18;4.28;;;;;;;16.68;100.00;100081.28;5113659;28;20044;-79
2023/10/13 08:27:15;;;;;;;7.40;4.10;;;;;;;16.78;100.00;100075.59;5110305;28;20078;-83
2023/10/13 08:32:54;;;;;;;8.40;4.35;;;;;;;16.99;100.00;100079.97;5113729;27;20067;-78
2023/10/13 08:35:33;;;;;;;4.47;3.75;;;;;;;17.09;100.00;100079.56;5109106;28;20130;-78
2023/10/13 08:38:04;;;;;;;6.53;4.22;;;;;;;17.11;100.00;100080.34;5099785;28;20122;-82
2023/10/13 08:41:25;;;;;;;9.45;4.63;;;;;;;17.17;100.00;100072.16;5111192;28;20162;-78
2023/10/13 08:43:44;;;;;;;7.63;4.18;;;;;;;17.18;100.00;100072.06;5109087;27;20051;-81
2023/10/13 08:46:24;;;;;;;4.47;3.90;;;;;;;17.26;100.00;100070.84;5106632;27;20456;-80
2023/10/13 08:49:03;;;;;;;4.82;3.75;;;;;;;17.30;100.00;100069.78;5115228;28;20114;-82
2023/10/13 08:51:44;;;;;;;6.70;3.67;;;;;;;17.37;100.00;100071.22;5118102;27;20487;-81
2023/10/13 08:56:56;;;;;;;4.82;3.78;;;;;;;17.44;100.00;100074.44;5094242;28;20074;-82
2023/10/13 08:59:22;;;;;;;9.07;4.93;;;;;;;17.47;100.00;100069.88;5089732;28;20039;-80
2023/10/13 09:01:59;;;;;;;6.38;4.35;;;;;;;17.52;100.00;100075.78;5095012;28;20035;-83
2023/10/13 09:04:33;;;;;;;5.72;4.38;;;;;;;17.55;100.00;100073.91;5100910;28;20070;-80
2023/10/13 09:07:15;;;;;;;6.32;4.65;;;;;;;17.57;100.00;100082.66;5097518;28;20048;-83
2023/10/13 09:09:42;;;;;;;6.88;4.00;;;;;;;17.55;100.00;100081.84;5090464;28;20051;-81
2023/10/13 09:12:26;;;;;;;8.23;3.60;;;;;;;17.52;100.00;100077.56;5100280;28;20040;-80
2023/10/13 09:14:57;;;;;;;6.72;3.75;;;;;;;17.54;100.00;100078.38;5097374;28;20043;-78
2023/10/13 09:17:35;;;;;;;4.93;3.17;;;;;;;17.59;100.00;100071.06;5092627;28;20119;-79
2023/10/13 09:20:23;;;;;;;5.78;4.03;;;;;;;17.72;100.00;100063.41;5096600;28;20536;-80
2023/10/13 09:23:07;;;;;;;4.20;3.70;;;;;;;17.83;100.00;100060.22;5095068;28;20039;-78
2023/10/13 09:25:53;;;;;;;5.18;2.72;;;;;;;17.90;100.00;100055.47;5091172;28;20407;-82
2023/10/13 09:28:21;;;;;;;3.83;3.45;;;;;;;17.91;100.00;100055.41;5098352;28;20048;-81
2023/10/13 09:30:49;;;;;;;3.83;3.40;;;;;;;17.94;100.00;100041.19;5082498;28;20036;-79
2023/10/13 09:33:29;;;;;;;6.00;3.53;;;;;;;18.04;100.00;100028.34;5091222;28;20032;-80
2023/10/13 09:35:59;;;;;;;8.68;3.33;;;;;;;18.18;100.00;100016.13;5089724;28;20036;-82
2023/10/13 09:38:28;;;;;;;4.25;2.83;;;;;;;18.33;100.00;100016.31;5094025;28;20060;-81
2023/10/13 09:40:57;;;;;;;3.92;3.22;;;;;;;18.42;100.00;99997.28;5093537;28;20491;-82
2023/10/13 09:43:28;;;;;;;4.07;3.08;;;;;;;18.44;100.00;99992.72;5094512;28;20113;-81
2023/10/13 09:46:03;;;;;;;3.53;3.22;;;;;;;18.47;100.00;99974.03;5098906;28;20045;-86
2023/10/13 09:48:33;;;;;;;6.63;3.47;;;;;;;18.51;100.00;99969.41;5096652;28;20521;-79
2023/10/13 09:51:04;;;;;;;8.05;3.53;;;;;;;18.52;100.00;99968.47;5097468;28;20043;-80
2023/10/13 09:53:33;;;;;;;3.25;2.63;;;;;;;18.60;100.00;99968.91;5095366;28;20096;-81
2023/10/13 09:56:13;;;;;;;7.00;3.70;;;;;;;18.94;100.00;99967.16;5097643;28;20118;-80
2023/10/13 09:58:56;;;;;;;8.70;3.30;;;;;;;19.03;100.00;99967.56;5102814;28;20112;-79
2023/10/13 10:01:37;;;;;;;5.63;2.90;;;;;;;19.09;100.00;99962.78;5099717;28;20061;-78
2023/10/13 10:04:15;;;;;;;2.78;2.58;;;;;;;19.25;100.00;99954.81;5096019;28;20479;-83
2023/10/13 10:07:00;;;;;;;7.55;2.88;;;;;;;19.39;100.00;99954.03;5079713;28;20145;-79
2023/10/13 10:09:34;;;;;;;3.15;2.90;;;;;;;19.48;100.00;99948.19;5103776;28;20658;-77
2023/10/13 10:12:47;;;;;;;3.67;2.90;;;;;;;19.52;100.00;99946.22;5091065;28;20392;-82
2023/10/13 10:15:29;;;;;;;5.25;3.58;;;;;;;19.70;100.00;99938.13;5101452;28;20039;-78
2023/10/13 10:17:56;;;;;;;6.28;3.05;;;;;;;19.72;100.00;99929.13;5101651;28;20035;-79
2023/10/13 10:20:39;;;;;;;3.95;3.28;;;;;;;19.73;100.00;99924.69;5100182;28;20515;-81
2023/10/13 10:23:09;;;;;;;4.07;2.63;;;;;;;19.81;100.00;99927.72;5083092;28;20050;-78
2023/10/13 10:25:37;;;;;;;6.97;2.80;;;;;;;19.85;100.00;99920.47;5103382;28;20089;-79
2023/10/13 10:28:06;;;;;;;10.00;3.60;;;;;;;19.76;100.00;99914.72;5094252;28;20051;-79
2023/10/13 10:30:38;;;;;;;4.32;3.13;;;;;;;19.98;100.00;99913.47;5093277;28;20412;-80
2023/10/13 10:33:12;;;;;;;4.60;3.42;;;;;;;20.17;100.00;99911.41;5091801;28;20044;-80
2023/10/13 10:35:48;;;;;;;6.57;2.90;;;;;;;20.44;100.00;99913.34;5102361;28;20042;-78
2023/10/13 10:38:23;;;;;;;5.35;2.35;;;;;;;20.61;100.00;99916.72;5100886;28;20040;-79
2023/10/13 10:41:03;;;;;;;4.57;2.80;;;;;;;20.74;100.00;99916.84;5100981;28;20040;-79
2023/10/13 10:43:42;;;;;;;8.57;3.17;;;;;;;20.75;99.87;99915.91;5104776;28;20040;-79
2023/10/13 10:46:14;;;;;;;5.55;3.20;;;;;;;20.94;98.29;99908.44;5096959;28;20032;-81
2023/10/13 10:48:43;;;;;;;5.20;2.97;;;;;;;21.01;95.60;99911.56;5092686;28;20051;-78
2023/10/13 10:51:21;;;;;;;9.80;2.97;;;;;;;21.08;94.44;99891.59;5096204;28;20399;-82
2023/10/13 10:53:51;;;;;;;7.82;2.88;;;;;;;21.23;93.53;99887.06;5091403;28;20032;-80
2023/10/13 10:56:36;;;;;;;8.85;3.33;;;;;;;21.05;93.98;99886.47;5096223;28;20051;-82
2023/10/13 10:59:09;;;;;;;9.13;3.25;;;;;;;21.19;90.54;99871.41;5096024;28;20035;-78
2023/10/13 11:01:47;;;;;;;7.22;3.45;;;;;;;21.36;91.96;99862.31;5080187;28;20074;-82
2023/10/13 11:04:18;;;;;;;7.57;3.38;;;;;;;21.36;88.53;99863.16;5092671;28;20047;-80
2023/10/13 11:06:56;;;;;;;6.72;3.38;;;;;;;21.35;88.70;99858.78;5101596;28;20048;-80
2023/10/13 11:09:37;;;;;;;9.55;3.42;;;;;;;21.62;86.14;99848.09;5090137;28;20038;-78
2023/10/13 11:12:13;;;;;;;5.38;2.95;;;;;;;21.78;85.60;99845.28;5095653;28;20032;-86
2023/10/13 11:14:40;;;;;;;11.07;4.32;;;;;;;21.53;85.28;99842.53;5104124;28;20051;-80
2023/10/13 11:17:13;;;;;;;7.40;3.33;;;;;;;21.63;84.30;99836.50;5091900;28;20134;-79
2023/10/13 11:19:44;;;;;;;7.35;3.90;;;;;;;21.84;83.40;99845.78;5097113;28;20060;-83
2023/10/13 11:22:33;;;;;;;5.47;3.22;;;;;;;22.13;80.78;99841.94;5086869;28;20055;-82
2023/10/13 11:25:02;;;;;;;8.15;4.00;;;;;;;22.20;79.17;99850.38;5096812;28;20039;-80
2023/10/13 11:27:56;;;;;;;11.88;4.03;;;;;;;22.37;79.95;99845.69;5089372;28;20036;-83
2023/10/13 11:30:40;;;;;;;6.70;4.10;;;;;;;22.81;75.98;99833.59;5091265;28;20067;-84
2023/10/13 11:33:23;;;;;;;8.38;3.78;;;;;;;23.18;73.61;99825.59;5095305;28;20055;-82
2023/10/13 11:35:55;;;;;;;13.88;5.50;;;;;;;23.49;71.33;99819.72;5106033;27;20032;-79
2023/10/13 11:38:34;;;;;;;10.02;4.45;;;;;;;23.22;72.40;99815.50;5094693;28;20048;-82
2023/10/13 11:41:11;;;;;;;10.00;3.78;;;;;;;22.94;72.92;99814.88;5092365;28;20051;-81
2023/10/13 11:47:16;;;;;;;5.22;3.33;;;;;;;22.31;76.40;99804.28;5028475;28;20052;-82
2023/10/13 11:49:42;;;;;;;6.15;4.35;;;;;;;22.02;77.40;99801.00;5094797;28;20063;-80
2023/10/13 11:52:18;;;;;;;9.40;3.65;;;;;;;22.00;77.78;99801.13;5075063;28;20085;-81
2023/10/13 11:54:49;;;;;;;7.50;4.00;;;;;;;21.90;78.38;99803.59;5093447;28;20058;-80
2023/10/13 11:57:22;;;;;;;9.45;4.13;;;;;;;21.86;78.70;99794.09;5092193;28;20576;-82
2023/10/13 11:59:57;;;;;;;6.20;3.63;;;;;;;21.69;79.45;99781.94;5073690;28;20066;-81
2023/10/13 12:05:16;;;;;;;10.35;3.92;;;;;;;21.69;79.64;99789.94;5094317;28;20087;-77
2023/10/13 12:07:51;;;;;;;6.90;3.80;;;;;;;21.71;81.39;99784.53;5073314;28;20055;-79
2023/10/13 12:10:33;;;;;;;6.85;4.07;;;;;;;21.94;78.35;99781.09;5084281;28;20052;-81
2023/10/13 12:13:05;;;;;;;13.40;5.35;;;;;;;22.00;77.88;99779.81;5089695;28;20043;-77
2023/10/13 12:15:51;;;;;;;10.90;4.47;;;;;;;22.10;76.33;99764.88;5076909;28;20579;-83
2023/10/13 12:18:19;;;;;;;11.60;4.53;;;;;;;22.16;76.63;99762.72;5089690;28;20467;-78
2023/10/13 12:20:46;;;;;;;6.75;4.32;;;;;;;22.16;75.77;99760.06;5110363;28;20506;-78
2023/10/13 12:23:19;;;;;;;9.48;4.43;;;;;;;22.16;75.66;99760.06;5077782;28;20043;-78
2023/10/13 12:25:57;;;;;;;7.50;4.10;;;;;;;22.20;74.66;99762.41;5099263;28;20680;-80
2023/10/13 12:28:26;;;;;;;13.10;5.15;;;;;;;23.15;70.64;99766.22;5094037;28;20550;-80
2023/10/13 12:30:54;;;;;;;9.45;4.45;;;;;;;23.27;69.18;99754.59;5109431;27;20052;-80
2023/10/13 12:33:25;;;;;;;11.13;3.55;;;;;;;23.38;68.07;99753.78;5078300;28;20105;-79
2023/10/13 12:36:30;;;;;;;10.52;4.85;;;;;;;23.33;68.62;99750.63;5095514;28;20051;-82
2023/10/13 12:50:07;;;;;;;11.65;4.85;;;;;;;24.57;64.01;99710.44;5095074;28;20126;-83
2023/10/13 12:52:36;;;;;;;12.23;4.30;;;;;;;24.76;63.49;99715.16;5092480;28;20036;-79
2023/10/13 12:55:07;;;;;;;9.57;4.55;;;;;;;24.25;63.11;99710.44;5080637;28;20069;-83
2023/10/13 12:57:42;;;;;;;10.75;3.92;;;;;;;23.98;65.08;99716.19;5093589;27;20515;-79
2023/10/13 13:00:20;;;;;;;12.13;4.57;;;;;;;23.95;64.27;99703.94;5088226;28;20052;-82
2023/10/13 13:02:47;;;;;;;10.13;4.32;;;;;;;24.85;60.28;99699.28;5091280;28;20454;-84
2023/10/13 13:05:14;;;;;;;7.43;4.80;;;;;;;24.99;59.70;99692.78;5093120;28;20051;-81
2023/10/13 13:07:54;;;;;;;5.50;3.88;;;;;;;25.04;59.24;99690.56;5098449;28;20043;-80
2023/10/13 13:10:35;;;;;;;9.60;4.35;;;;;;;24.75;60.15;99704.59;5093106;27;20079;-79
2023/10/13 13:13:07;;;;;;;6.30;3.95;;;;;;;24.73;59.91;99694.00;5093805;28;20039;-83
2023/10/13 13:15:37;;;;;;;9.10;4.75;;;;;;;24.61;60.08;99701.22;5080549;28;20044;-81
2023/10/13 13:18:11;;;;;;;10.90;4.78;;;;;;;24.66;60.08;99691.97;5094527;28;20750;-81
2023/10/13 13:20:44;;;;;;;10.15;5.05;;;;;;;24.74;59.16;99694.84;5083416;28;20040;-79
2023/10/13 13:23:12;;;;;;;;;;;;;;;24.97;58.55;99692.91;5095522;28;20051;-83
2023/10/13 13:25:42;;;;;;;10.70;5.10;;;;;;;25.10;58.12;99682.84;5099489;28;19930;-82
2023/10/13 13:28:12;;;;;;;13.18;4.65;;;;;;;24.72;58.89;99673.59;5092739;28;20523;-84
2023/10/13 13:30:42;;;;;;;10.00;4.55;;;;;;;24.66;59.56;99681.28;5096438;28;20123;-79
2023/10/13 13:33:11;;;;;;;13.23;4.78;;;;;;;24.26;60.25;99685.38;5080015;28;20043;-81
2023/10/13 13:35:54;;;;;;;10.73;4.03;;;;;;;23.85;61.33;99674.38;5078419;28;20043;-79
2023/10/13 13:38:27;;;;;;;10.95;4.57;;;;;;;23.89;61.97;99651.78;5084439;28;20054;-83
2023/10/13 13:41:09;;;;;;;10.48;5.15;;;;;;;24.11;61.56;99650.91;5082084;28;20035;-78
2023/10/13 13:44:00;;;;;;;13.55;4.88;;;;;;;24.95;58.77;99646.69;5095819;28;20187;-80